Tuesday, March 31, 2015
08:28 UTC
  |  Log In   |  Register Free
Airport Search:

Powell Municipal Airport
(KPOY)

Powell Municipal Airport Diagram
No Airport Diagram Available

FAA data valid effective March 05, 2015 - April 30, 2015 (unless otherwise noted).

 
 
 
 
 
 
 
 
 
 
 
 
 
 

Current Aviation Weather for Powell Municipal Airport (KPOY)

The most recent METAR observation for KPOY was updated at: 0809
METAR Summary (Translated METAR)
KPOY
310755Z AUTO 14008KT 10SM CLR 09/M09 A2999 RMK AO2
KU68
310755Z AUTO 08005KT 10SM CLR 07/M05 RMK AO2
(15 nm NE from KPOY)
KCOD
310755Z 22012KT 10SM CLR 11/M08 A3002 RMK AO1
(23.1 nm SW from KPOY)
TAF Summary (Translated TAF)
KCOD
310520Z 3106/0106 24011KT P6SM FEW200 FM311300 17009KT P6SM SCT200 FM311900 24017G25KT P6SM SCT150 FM010100 27016G25KT P6SM VCSH SCT100 SCT250 AMD LTD TO CLD VIS AND WIND
  Airport Weather Conditions for KPOY

 Current Weather at POY
50° F
Fair
Southeast winds at 6.9 mph
POY NOAA Radar

Pressure: 30.00 in
Humidity: 24%
Wind: Southeast at 6.9 MPH (6 KT)
Dew Point: 14.0°F
Visibility: 10.00 mi


Airport Weather Forecast for KPOY

Translated METAR and TAF for KCOD
Translated METAR for KCOD (0828 UTC 31 March 2015)
found at http://aviationweather.gov/adds/metars/
 
METAR text: KCOD 310815Z 20012KT 10SM CLR 11/M08 A3001 RMK AO1
Conditions at: KCOD (CODY , WY, US) observed 0815 UTC 31 March 2015
Temperature: 11.0°C (52°F)
Dewpoint: -8.0°C (18°F) [RH = 25%]
Pressure (altimeter): 30.01 inches Hg (1016.3 mb)
Winds: from the SSW (200 degrees) at 14 MPH (12 knots; 6.2 m/s)
Visibility: 10 or more miles (16+ km)
Ceiling: at least 12,000 feet AGL
Clouds: sky clear below 12,000 feet AGL
Weather: no significant weather observed at this time
Translated TAF for KCOD
Forecast for: KCOD (CODY , WY, US)
TAF Text: KCOD 310520Z 3106/0106 24011KT P6SM FEW200
Forecast period: 0600 to 1300 UTC 31 March 2015
Forecast type: FROM: standard forecast or significant change
Winds: from the WSW (240 degrees) at 13 MPH (11 knots; 5.7 m/s)
Visibility: 6 or more miles (10+ km)
Clouds: few clouds at 20000 feet AGL
Weather: no significant weather forecast for this period
TAF Text: FM311300 17009KT P6SM SCT200
Forecast period: 1300 to 1900 UTC 31 March 2015
Forecast type: FROM: standard forecast or significant change
Winds: from the S (170 degrees) at 10 MPH (9 knots; 4.7 m/s)
Visibility: 6 or more miles (10+ km)
Clouds: scattered clouds at 20000 feet AGL
Weather: no significant weather forecast for this period
TAF Text: FM311900 24017G25KT P6SM SCT150
Forecast period: 1900 UTC 31 March 2015 to 0100 UTC 01 April 2015
Forecast type: FROM: standard forecast or significant change
Winds: from the WSW (240 degrees) at 20 MPH (17 knots; 8.8 m/s)
gusting to 29 MPH (25 knots; 13.0 m/s)
Visibility: 6 or more miles (10+ km)
Clouds: scattered clouds at 15000 feet AGL
Weather: no significant weather forecast for this period
TAF Text: FM010100 27016G25KT P6SM VCSH SCT100 SCT250 AMD LTD TO CLD VIS AND WIND
Forecast period: 0100 to 0600 UTC 01 April 2015
Forecast type: FROM: standard forecast or significant change
Winds: from the W (270 degrees) at 18 MPH (16 knots; 8.3 m/s)
gusting to 29 MPH (25 knots; 13.0 m/s)
Visibility: 6 or more miles (10+ km)
Clouds: scattered clouds at 10000 feet AGL
scattered clouds at 25000 feet AGL
Weather: VCSH  (showers in vicinity)

Find All Airport Services Find A Hotel Find A Rental Car Find A Golf Course Find A Restaurant $100 Hamburger



FBO's on the Field
FBO Company Facility Photos Services Transportation Aviation Fuel Prices: Prices include tax
Catering Weather Repair Courtesy Rental Type 100LL JetA JetA+ MOGAS 8087
 
City of Powell

This FBO has not yet been rated
FS:Independent
Last Updated: Mar-06
Login to update fuel prices
SS:
Contact City of PowellMore FBO Information
 
Add another FBO Facility Photos Catering Weather Repair Courtesy Rental Type 100LL JetA JetA+ MOGAS 8087
Services Transportation Aviation Fuel Prices: Prices include tax


model-print
model-print
model-print
model-print